createdAt,value
2019-01-21T00:00:47.005Z,21.40
2019-01-21T00:03:16.675Z,20.53
2019-01-21T00:05:46.288Z,21.27
2019-01-21T00:08:15.853Z,20.13
2019-01-21T00:10:45.490Z,21.47
2019-01-21T00:13:15.098Z,20.27
2019-01-21T00:15:44.757Z,21.43
2019-01-21T00:18:14.409Z,21.20
2019-01-21T00:20:43.994Z,20.47
2019-01-21T00:23:13.566Z,21.53
2019-01-21T00:25:43.135Z,20.67
2019-01-21T00:28:12.750Z,20.63
2019-01-21T00:30:45.429Z,19.40
2019-01-21T00:33:15.043Z,21.03
2019-01-21T00:35:44.848Z,21.17
2019-01-21T00:38:33.730Z,22.73
2019-01-21T00:41:03.351Z,20.27
2019-01-21T00:43:32.933Z,22.37
2019-01-21T00:46:02.538Z,21.10
2019-01-21T00:48:32.145Z,21.23
2019-01-21T00:51:02.410Z,22.03
2019-01-21T00:53:31.828Z,20.07
2019-01-21T00:56:01.437Z,21.57
2019-01-21T00:58:31.032Z,21.03
2019-01-21T01:01:00.672Z,20.97
2019-01-21T01:03:30.382Z,20.47
2019-01-21T01:05:59.990Z,20.93
2019-01-21T01:08:29.593Z,21.07
2019-01-21T01:10:59.206Z,21.57
2019-01-21T01:13:28.783Z,21.23
2019-01-21T01:15:58.362Z,22.07
2019-01-21T01:18:27.938Z,21.37
2019-01-21T01:20:57.511Z,20.87
2019-01-21T01:23:27.105Z,22.00
2019-01-21T01:25:56.974Z,21.43
2019-01-21T01:28:28.053Z,20.97
2019-01-21T01:30:57.608Z,20.27
2019-01-21T01:33:27.307Z,19.43
2019-01-21T01:35:56.920Z,20.80
2019-01-21T01:38:26.526Z,20.53
2019-01-21T01:40:56.144Z,20.97
2019-01-21T01:43:25.867Z,20.80
2019-01-21T01:45:55.516Z,20.77
2019-01-21T01:48:25.343Z,21.67
2019-01-21T01:50:54.984Z,20.57
2019-01-21T01:53:24.619Z,20.40
2019-01-21T01:55:56.351Z,20.33
2019-01-21T01:58:45.290Z,21.13
2019-01-21T02:01:14.921Z,22.30
2019-01-21T02:03:44.759Z,20.33
2019-01-21T02:06:14.446Z,21.20
2019-01-21T02:08:44.039Z,21.63
2019-01-21T02:11:13.767Z,21.07
2019-01-21T02:13:43.381Z,21.30
2019-01-21T02:16:13.375Z,20.60
2019-01-21T02:18:43.002Z,20.90
2019-01-21T02:21:12.683Z,21.83
2019-01-21T02:23:45.723Z,20.47
2019-01-21T02:26:19.019Z,19.07
2019-01-21T02:28:53.502Z,20.90
2019-01-21T02:31:27.922Z,21.57
2019-01-21T02:34:19.797Z,23.10
2019-01-21T02:36:53.863Z,22.83
2019-01-21T02:39:45.780Z,23.33
2019-01-21T02:42:20.094Z,20.47
2019-01-21T02:44:54.154Z,20.27
2019-01-21T02:47:28.239Z,21.57
2019-01-21T02:50:02.283Z,20.57
2019-01-21T02:52:36.345Z,20.70
2019-01-21T02:55:10.396Z,21.33
2019-01-21T02:57:44.435Z,20.37
2019-01-21T03:00:18.529Z,21.03
2019-01-21T03:02:52.572Z,21.67
2019-01-21T03:05:26.647Z,21.60
2019-01-21T03:08:00.686Z,21.03
2019-01-21T03:10:35.504Z,20.23
2019-01-21T03:13:09.571Z,20.67
2019-01-21T03:15:43.616Z,19.43
2019-01-21T03:18:35.473Z,20.67
2019-01-21T03:21:09.936Z,19.77
2019-01-21T03:23:43.967Z,21.00
2019-01-21T03:26:18.038Z,21.93
2019-01-21T03:28:52.058Z,20.43
2019-01-21T03:31:26.144Z,21.27
2019-01-21T03:34:00.197Z,21.67
2019-01-21T03:36:34.257Z,22.13
2019-01-21T03:39:08.519Z,21.30
2019-01-21T03:41:42.579Z,21.37
2019-01-21T03:44:17.005Z,21.57
2019-01-21T03:46:51.443Z,20.77
2019-01-21T03:49:25.477Z,20.50
2019-01-21T03:51:59.596Z,20.17
2019-01-21T03:54:31.826Z,21.40
2019-01-21T03:57:06.184Z,21.43
2019-01-21T03:59:40.259Z,20.80
2019-01-21T04:02:14.352Z,20.80
2019-01-21T04:04:48.386Z,20.97
2019-01-21T04:07:22.465Z,20.63
2019-01-21T04:09:56.508Z,19.47
2019-01-21T04:12:30.630Z,20.57
2019-01-21T04:15:04.658Z,21.33
2019-01-21T04:17:39.068Z,21.00
2019-01-21T04:20:13.132Z,20.73
2019-01-21T04:22:47.216Z,21.90
2019-01-21T04:25:21.310Z,21.57
2019-01-21T04:27:55.349Z,21.33
2019-01-21T04:30:29.402Z,22.03
2019-01-21T04:33:03.469Z,20.97
2019-01-21T04:35:37.869Z,21.90
2019-01-21T04:38:12.305Z,21.43
2019-01-21T04:40:46.347Z,21.13
2019-01-21T04:43:20.431Z,22.10
2019-01-21T04:48:53.928Z,21.37
2019-01-21T04:51:28.372Z,20.90
2019-01-21T04:54:02.539Z,21.83
2019-01-21T04:56:36.608Z,20.47
2019-01-21T04:59:10.697Z,20.70
2019-01-21T05:01:45.024Z,20.07
2019-01-21T05:06:58.846Z,20.00
2019-01-21T05:09:32.879Z,21.77
2019-01-21T05:12:06.986Z,20.97
2019-01-21T05:14:41.081Z,21.40
2019-01-21T05:17:15.499Z,21.20
2019-01-21T05:19:49.541Z,25.57
2019-01-21T05:22:23.610Z,32.33
2019-01-21T05:24:57.677Z,26.73
2019-01-21T05:27:31.734Z,26.73
2019-01-21T05:30:06.187Z,27.53
2019-01-21T05:32:40.628Z,24.40
2019-01-21T05:35:14.677Z,24.77
2019-01-21T05:37:48.765Z,30.17
2019-01-21T05:40:23.068Z,29.00
2019-01-21T05:42:57.164Z,31.27
2019-01-21T05:45:31.224Z,32.57
2019-01-21T05:48:05.281Z,31.10
2019-01-21T05:50:39.635Z,30.63
2019-01-21T05:53:13.693Z,28.53
2019-01-21T05:55:47.745Z,31.43
2019-01-21T05:58:39.637Z,31.67
2019-01-21T06:01:14.058Z,30.27
2019-01-21T06:03:48.127Z,31.00
2019-01-21T06:06:22.154Z,32.07
2019-01-21T06:08:56.272Z,31.40
2019-01-21T06:11:30.325Z,28.00
2019-01-21T06:14:04.398Z,28.10
2019-01-21T06:16:38.448Z,27.00
2019-01-21T06:19:12.507Z,26.90
2019-01-21T06:21:46.548Z,24.80
2019-01-21T06:24:20.625Z,25.50
2019-01-21T06:26:54.696Z,24.80
2019-01-21T06:29:28.752Z,24.73
2019-01-21T06:32:02.836Z,24.27
2019-01-21T06:34:42.868Z,25.27
2019-01-21T06:37:16.892Z,22.17
2019-01-21T06:39:51.364Z,23.37
2019-01-21T06:42:25.419Z,22.53
2019-01-21T06:44:59.857Z,23.97
2019-01-21T06:47:33.887Z,21.70
2019-01-21T06:50:08.593Z,23.70
2019-01-21T06:52:42.659Z,23.17
2019-01-21T06:55:16.762Z,22.93
2019-01-21T06:57:51.181Z,23.57
2019-01-21T07:00:25.247Z,22.27
2019-01-21T07:02:59.290Z,22.23
2019-01-21T07:05:33.371Z,22.27
2019-01-21T07:08:07.449Z,23.00
2019-01-21T07:10:41.770Z,23.30
2019-01-21T07:13:16.522Z,22.80
2019-01-21T07:15:50.627Z,22.53
2019-01-21T07:18:26.063Z,21.43
2019-01-21T07:21:00.283Z,22.27
2019-01-21T07:23:35.009Z,25.80
2019-01-21T07:26:09.060Z,22.67
2019-01-21T07:28:43.139Z,20.60
2019-01-21T07:31:17.558Z,21.27
2019-01-21T07:33:51.753Z,20.93
2019-01-21T07:36:25.790Z,22.57
2019-01-21T07:41:38.963Z,20.07
2019-01-21T07:44:13.008Z,21.57
2019-01-21T07:46:47.528Z,21.87
2019-01-21T07:49:21.933Z,22.13
2019-01-21T07:51:55.987Z,21.40
2019-01-21T07:54:30.325Z,21.20
2019-01-21T07:57:10.278Z,20.87
2019-01-21T07:59:44.374Z,21.57
2019-01-21T08:02:18.502Z,22.40
2019-01-21T08:04:52.906Z,21.47
2019-01-21T08:07:26.939Z,20.97
2019-01-21T08:10:01.036Z,21.43
2019-01-21T08:12:35.277Z,21.30
2019-01-21T08:15:09.360Z,21.67
2019-01-21T08:17:43.418Z,21.17
2019-01-21T08:20:17.489Z,19.97
2019-01-21T08:22:51.925Z,18.20
2019-01-21T08:25:26.001Z,19.70
2019-01-21T08:28:00.645Z,17.83
2019-01-21T08:30:34.654Z,18.43
2019-01-21T08:33:08.776Z,18.80
2019-01-21T08:35:42.789Z,18.57
2019-01-21T08:38:17.588Z,18.47
2019-01-21T08:40:51.620Z,17.40
2019-01-21T08:43:26.774Z,17.37
2019-01-21T08:46:00.758Z,17.77
2019-01-21T08:48:34.851Z,17.83
2019-01-21T08:51:08.882Z,17.63
2019-01-21T08:53:43.047Z,17.97
2019-01-21T08:56:17.077Z,17.77
2019-01-21T08:58:51.497Z,17.57
2019-01-21T09:01:25.931Z,17.93
2019-01-21T09:06:40.895Z,17.83
2019-01-21T09:09:15.303Z,17.97
2019-01-21T09:11:49.369Z,17.83
2019-01-21T09:14:23.409Z,18.50
2019-01-21T09:16:57.494Z,18.17
2019-01-21T09:19:37.083Z,18.53
2019-01-21T09:22:07.332Z,20.30
2019-01-21T09:24:41.371Z,19.40
2019-01-21T09:27:15.389Z,18.53
2019-01-21T09:29:49.447Z,18.47
2019-01-21T09:32:41.662Z,18.73
2019-01-21T09:35:15.717Z,19.60
2019-01-21T09:37:49.785Z,20.57
2019-01-21T09:40:24.218Z,19.57
2019-01-21T09:42:58.306Z,18.67
2019-01-21T09:45:33.347Z,18.40
2019-01-21T09:50:45.124Z,18.53
2019-01-21T09:53:15.043Z,18.60
2019-01-21T09:55:49.052Z,19.67
2019-01-21T09:58:21.710Z,19.70
2019-01-21T10:00:51.369Z,19.33
2019-01-21T10:03:22.458Z,18.83
2019-01-21T10:05:56.700Z,18.30
2019-01-21T10:08:30.740Z,18.97
2019-01-21T10:11:04.797Z,18.80
2019-01-21T10:13:38.851Z,18.77
2019-01-21T10:16:12.915Z,18.20
2019-01-21T10:18:46.977Z,18.55
2019-01-21T10:21:21.740Z,18.30
2019-01-21T10:26:39.236Z,19.37
2019-01-21T10:29:13.303Z,18.23
2019-01-21T10:31:47.370Z,18.67
2019-01-21T10:37:02.712Z,18.63
2019-01-21T10:42:15.814Z,16.37
2019-01-21T10:44:50.222Z,18.53
2019-01-21T10:47:24.289Z,17.90
2019-01-21T10:49:58.311Z,18.60
2019-01-21T10:52:32.766Z,18.47
2019-01-21T10:57:48.358Z,16.53
2019-01-21T11:00:22.413Z,17.20
2019-01-21T11:02:56.489Z,17.00
2019-01-21T11:05:33.559Z,16.83
2019-01-21T11:08:08.015Z,16.60
2019-01-21T11:10:42.194Z,17.47
2019-01-21T11:13:16.227Z,16.53
2019-01-21T11:15:53.017Z,16.27
2019-01-21T11:18:27.074Z,15.77
2019-01-21T11:21:01.104Z,16.20
2019-01-21T11:23:35.217Z,16.40
2019-01-21T11:26:15.267Z,16.10
2019-01-21T11:28:49.318Z,16.70
2019-01-21T11:31:23.779Z,16.07
2019-01-21T11:33:57.935Z,16.37
2019-01-21T11:36:32.007Z,14.97
2019-01-21T11:39:06.055Z,16.10
2019-01-21T11:41:57.902Z,16.27
2019-01-21T11:44:31.983Z,16.63
2019-01-21T11:47:06.002Z,16.30
2019-01-21T11:49:40.088Z,16.63
2019-01-21T11:52:17.529Z,16.87
2019-01-21T11:54:50.199Z,16.73
2019-01-21T12:00:06.914Z,17.63
2019-01-21T12:02:40.939Z,18.50
2019-01-21T12:05:15.044Z,16.67
2019-01-21T12:07:49.038Z,18.60
2019-01-21T12:10:40.889Z,18.50
2019-01-21T12:13:15.000Z,18.10
2019-01-21T12:15:49.107Z,17.97
2019-01-21T12:18:23.106Z,17.87
2019-01-21T12:21:15.316Z,19.03
2019-01-21T12:23:49.360Z,18.30
2019-01-21T12:26:23.428Z,19.70
2019-01-21T12:28:57.487Z,18.53
2019-01-21T12:34:12.803Z,19.07
2019-01-21T12:36:46.874Z,19.00
2019-01-21T12:39:20.947Z,18.53
2019-01-21T12:41:55.012Z,18.43
2019-01-21T12:44:29.413Z,17.97
2019-01-21T12:47:03.435Z,18.50
2019-01-21T12:49:55.297Z,18.17
2019-01-21T12:52:29.321Z,18.73
2019-01-21T12:55:03.386Z,18.27
2019-01-21T12:57:37.430Z,16.97
2019-01-21T13:00:11.847Z,16.70
2019-01-21T13:02:45.868Z,17.37
2019-01-21T13:05:19.932Z,17.73
2019-01-21T13:08:12.987Z,17.43
2019-01-21T13:10:47.039Z,17.03
2019-01-21T13:13:40.122Z,17.97
2019-01-21T13:16:14.152Z,17.20
2019-01-21T13:18:48.569Z,18.00
2019-01-21T13:21:22.643Z,16.80
2019-01-21T13:23:56.683Z,16.43
2019-01-21T13:26:30.741Z,16.43
2019-01-21T13:29:04.816Z,15.87
2019-01-21T13:31:39.727Z,16.43
2019-01-21T13:34:14.150Z,17.20
2019-01-21T13:36:48.211Z,16.73
2019-01-21T13:39:22.292Z,15.97
2019-01-21T13:41:56.362Z,17.57
2019-01-21T13:44:30.389Z,17.00
2019-01-21T13:47:04.456Z,17.33
2019-01-21T13:49:38.495Z,16.23
2019-01-21T13:52:12.574Z,16.47
2019-01-21T13:54:46.626Z,17.17
2019-01-21T13:57:20.698Z,16.83
2019-01-21T13:59:54.717Z,16.53
2019-01-21T14:02:28.798Z,16.37
2019-01-21T14:07:41.863Z,17.37
2019-01-21T14:10:16.247Z,17.00
2019-01-21T14:12:50.327Z,17.90
2019-01-21T14:15:43.429Z,16.97
2019-01-21T14:20:56.487Z,16.90
2019-01-21T14:23:30.521Z,15.73
2019-01-21T14:26:04.620Z,15.43
2019-01-21T14:28:38.657Z,14.73
2019-01-21T14:31:12.735Z,14.33
2019-01-21T14:33:47.502Z,16.23
2019-01-21T14:36:21.883Z,16.07
2019-01-21T14:38:55.945Z,17.10
2019-01-21T14:41:30.010Z,17.70
2019-01-21T14:46:43.203Z,17.67
2019-01-21T14:49:17.244Z,16.30
2019-01-21T14:51:51.735Z,17.17
2019-01-21T14:54:43.552Z,16.33
2019-01-21T14:59:56.327Z,17.53
2019-01-21T15:02:30.330Z,17.87
2019-01-21T15:05:04.910Z,17.87
2019-01-21T15:07:38.995Z,17.37
2019-01-21T15:10:13.545Z,18.30
2019-01-21T15:13:05.378Z,17.87
2019-01-21T15:18:18.183Z,18.53
2019-01-21T15:20:57.676Z,17.07
2019-01-21T15:23:28.609Z,17.33
2019-01-21T15:26:03.614Z,17.47
2019-01-21T15:28:37.924Z,17.27
2019-01-21T15:31:11.986Z,16.20
2019-01-21T15:36:27.680Z,17.80
2019-01-21T15:39:01.729Z,16.97
2019-01-21T15:41:35.933Z,17.70
2019-01-21T15:44:10.087Z,16.77
2019-01-21T15:46:44.155Z,17.87
2019-01-21T15:49:18.200Z,16.87
2019-01-21T15:52:10.070Z,18.23
2019-01-21T15:54:44.109Z,17.97
2019-01-21T15:57:18.543Z,16.67
2019-01-21T15:59:52.572Z,17.27
2019-01-21T16:02:26.627Z,15.40
2019-01-21T16:05:00.774Z,14.83
2019-01-21T16:07:34.961Z,13.87
2019-01-21T16:10:08.988Z,14.90
2019-01-21T16:12:43.068Z,14.83
2019-01-21T16:15:17.149Z,15.23
2019-01-21T16:18:08.987Z,16.03
2019-01-21T16:20:43.053Z,15.80
2019-01-21T16:23:17.168Z,15.40
2019-01-21T16:25:50.888Z,14.73
2019-01-21T16:28:25.005Z,14.47
2019-01-21T16:30:59.021Z,15.40
2019-01-21T16:33:33.114Z,14.53
2019-01-21T16:36:07.176Z,13.90
2019-01-21T16:38:36.743Z,15.13
2019-01-21T16:41:10.837Z,14.57
2019-01-21T16:43:40.474Z,13.87
2019-01-21T16:46:10.074Z,15.40
2019-01-21T16:48:39.545Z,15.73
2019-01-21T16:51:09.208Z,15.30
2019-01-21T16:53:38.816Z,15.40
2019-01-21T16:56:08.495Z,16.63
2019-01-21T16:58:38.056Z,15.43
2019-01-21T17:01:07.734Z,16.83
2019-01-21T17:03:41.112Z,16.43
2019-01-21T17:06:10.681Z,17.90
2019-01-21T17:08:40.120Z,18.30
2019-01-21T17:11:09.811Z,16.97
2019-01-21T17:13:39.475Z,17.17
2019-01-21T17:16:09.211Z,17.13
2019-01-21T17:18:38.819Z,17.03
2019-01-21T17:21:08.486Z,18.70
2019-01-21T17:23:38.077Z,17.33
2019-01-21T17:26:08.075Z,17.27
2019-01-21T17:28:37.679Z,18.17
2019-01-21T17:31:07.272Z,18.07
2019-01-21T17:33:36.982Z,18.13
2019-01-21T17:36:06.641Z,19.33
2019-01-21T17:38:36.214Z,20.03
2019-01-21T17:41:06.093Z,18.43
2019-01-21T17:43:35.681Z,17.57
2019-01-21T17:46:05.453Z,18.70
2019-01-21T17:48:35.050Z,19.50
2019-01-21T17:51:04.618Z,18.70
2019-01-21T17:53:34.206Z,18.53
2019-01-21T17:56:03.808Z,20.03
2019-01-21T17:58:33.380Z,18.80
2019-01-21T18:01:03.055Z,19.83
2019-01-21T18:03:32.671Z,18.93
2019-01-21T18:06:02.231Z,18.93
2019-01-21T18:08:31.810Z,18.23
2019-01-21T18:11:01.437Z,18.77
2019-01-21T18:13:31.012Z,19.10
2019-01-21T18:16:00.676Z,17.93
2019-01-21T18:18:30.378Z,19.50
2019-01-21T18:21:00.003Z,20.43
2019-01-21T18:23:29.674Z,20.77
2019-01-21T18:25:59.366Z,20.57
2019-01-21T18:28:29.024Z,19.97
2019-01-21T18:30:58.644Z,20.57
2019-01-21T18:33:28.247Z,19.40
2019-01-21T18:35:57.817Z,19.20
2019-01-21T18:38:27.491Z,20.67
2019-01-21T18:40:57.524Z,19.23
2019-01-21T18:43:28.015Z,19.90
2019-01-21T18:45:57.612Z,19.33
2019-01-21T18:48:27.544Z,19.13
2019-01-21T18:50:57.217Z,18.63
2019-01-21T18:53:26.787Z,19.63
2019-01-21T18:55:56.551Z,19.87
2019-01-21T18:58:26.144Z,19.47
2019-01-21T19:00:55.755Z,20.03
2019-01-21T19:03:25.357Z,18.87
2019-01-21T19:06:14.209Z,18.43
2019-01-21T19:08:43.805Z,18.83
2019-01-21T19:11:13.371Z,19.20
2019-01-21T19:13:44.437Z,19.17
2019-01-21T19:16:14.047Z,20.10
2019-01-21T19:18:43.628Z,18.27
2019-01-21T19:21:13.237Z,18.97
2019-01-21T19:23:43.212Z,18.87
2019-01-21T19:26:32.081Z,18.43
2019-01-21T19:29:01.720Z,18.93
2019-01-21T19:31:31.291Z,19.83
2019-01-21T19:34:00.871Z,19.50
2019-01-21T19:36:30.531Z,19.43
2019-01-21T19:39:00.123Z,18.80
2019-01-21T19:41:29.693Z,19.53
2019-01-21T19:44:00.082Z,17.83
2019-01-21T19:46:29.639Z,18.93
2019-01-21T19:48:59.253Z,18.93
2019-01-21T19:51:28.880Z,17.70
2019-01-21T19:53:58.447Z,18.60
2019-01-21T19:56:28.059Z,17.77
2019-01-21T19:58:57.662Z,18.67
2019-01-21T20:01:27.339Z,18.50
2019-01-21T20:03:56.904Z,17.97
2019-01-21T20:06:26.528Z,19.10
2019-01-21T20:08:56.113Z,18.07
2019-01-21T20:11:25.704Z,18.47
2019-01-21T20:13:55.330Z,17.97
2019-01-21T20:16:24.899Z,19.50
2019-01-21T20:18:54.493Z,18.77
2019-01-21T20:21:24.090Z,17.43
2019-01-21T20:23:53.687Z,18.63
2019-01-21T20:26:23.254Z,18.67
2019-01-21T20:28:52.856Z,18.97
2019-01-21T20:31:22.417Z,18.23
2019-01-21T20:33:52.405Z,16.40
2019-01-21T20:36:22.552Z,18.13
2019-01-21T20:38:52.156Z,17.70
2019-01-21T20:41:21.742Z,17.00
2019-01-21T20:43:51.364Z,17.47
2019-01-21T20:46:21.926Z,17.27
2019-01-21T20:48:51.497Z,18.03
2019-01-21T20:51:21.124Z,18.20
2019-01-21T20:53:50.686Z,17.90
2019-01-21T20:56:39.570Z,18.20
2019-01-21T20:59:09.217Z,18.07
2019-01-21T21:01:38.790Z,17.50
2019-01-21T21:04:14.494Z,17.87
2019-01-21T21:06:44.063Z,18.23
2019-01-21T21:09:13.657Z,18.27
2019-01-21T21:11:43.254Z,17.93
2019-01-21T21:14:12.829Z,17.97
2019-01-21T21:16:42.427Z,17.73
2019-01-21T21:19:12.050Z,19.10
2019-01-21T21:21:41.642Z,18.67
2019-01-21T21:24:11.221Z,17.87
2019-01-21T21:26:40.954Z,22.50
2019-01-21T21:29:10.567Z,18.50
2019-01-21T21:31:40.148Z,17.43
2019-01-21T21:34:09.921Z,16.83
2019-01-21T21:36:39.517Z,17.53
2019-01-21T21:39:09.723Z,17.43
2019-01-21T21:41:39.302Z,17.73
2019-01-21T21:44:08.928Z,17.63
2019-01-21T21:46:38.550Z,17.13
2019-01-21T21:49:08.230Z,17.30
2019-01-21T21:51:37.649Z,17.10
2019-01-21T21:54:07.271Z,17.87
2019-01-21T21:56:36.983Z,16.30
2019-01-21T21:59:25.852Z,19.57
2019-01-21T22:01:55.554Z,17.90
2019-01-21T22:04:25.149Z,18.03
2019-01-21T22:06:54.859Z,17.27
2019-01-21T22:09:24.889Z,17.93
2019-01-21T22:11:54.458Z,18.77
2019-01-21T22:14:24.099Z,17.27
2019-01-21T22:16:53.711Z,17.50
2019-01-21T22:19:23.303Z,16.47
2019-01-21T22:21:53.299Z,17.03
2019-01-21T22:24:23.006Z,17.30
2019-01-21T22:26:52.574Z,17.87
2019-01-21T22:29:22.141Z,18.13
2019-01-21T22:31:51.835Z,16.80
2019-01-21T22:34:21.870Z,16.83
2019-01-21T22:37:10.737Z,16.27
2019-01-21T22:39:42.006Z,17.00
2019-01-21T22:42:11.612Z,18.13
2019-01-21T22:44:41.209Z,18.00
2019-01-21T22:47:10.809Z,16.77
2019-01-21T22:49:40.394Z,17.23
2019-01-21T22:52:10.310Z,16.80
2019-01-21T22:54:39.881Z,16.60
2019-01-21T22:57:09.442Z,16.83
2019-01-21T22:59:39.040Z,17.23
2019-01-21T23:02:28.182Z,18.00
2019-01-21T23:04:58.120Z,15.67
2019-01-21T23:07:27.701Z,17.07
2019-01-21T23:09:57.332Z,17.47
2019-01-21T23:12:27.327Z,17.97
2019-01-21T23:14:56.931Z,18.10
2019-01-21T23:17:26.874Z,17.77
2019-01-21T23:19:56.472Z,17.03
2019-01-21T23:22:26.035Z,17.17
2019-01-21T23:24:55.603Z,15.83
2019-01-21T23:27:25.212Z,17.60
2019-01-21T23:29:55.190Z,16.47
2019-01-21T23:32:24.776Z,18.33
2019-01-21T23:34:54.382Z,19.23
2019-01-21T23:37:23.952Z,17.77
2019-01-21T23:39:53.558Z,16.73
2019-01-21T23:42:23.639Z,18.07
2019-01-21T23:44:53.247Z,17.83
2019-01-21T23:47:23.029Z,18.07
2019-01-21T23:49:52.645Z,18.93
2019-01-21T23:52:22.208Z,18.10
2019-01-21T23:54:51.794Z,18.47
2019-01-21T23:57:21.424Z,18.83
2019-01-21T23:59:51.015Z,17.83
